sensor_id;sensor_type;location;lat;lon;timestamp;P1;durP1;ratioP1;P2;durP2;ratioP2
17347;SDS011;8791;50.876;4.342;2022-08-02T00:02:09;3.90;;;2.20;;
17347;SDS011;8791;50.876;4.342;2022-08-02T00:04:35;4.95;;;2.00;;
17347;SDS011;8791;50.876;4.342;2022-08-02T00:07:02;2.78;;;1.90;;
17347;SDS011;8791;50.876;4.342;2022-08-02T00:09:31;6.45;;;2.00;;
17347;SDS011;8791;50.876;4.342;2022-08-02T00:11:57;9.05;;;1.80;;
17347;SDS011;8791;50.876;4.342;2022-08-02T00:14:24;6.70;;;1.92;;
17347;SDS011;8791;50.876;4.342;2022-08-02T00:16:51;6.93;;;2.53;;
17347;SDS011;8791;50.876;4.342;2022-08-02T00:19:18;5.25;;;2.13;;
17347;SDS011;8791;50.876;4.342;2022-08-02T00:21:45;7.88;;;2.08;;
17347;SDS011;8791;50.876;4.342;2022-08-02T00:24:12;3.28;;;1.77;;
17347;SDS011;8791;50.876;4.342;2022-08-02T00:26:40;8.52;;;2.05;;
17347;SDS011;8791;50.876;4.342;2022-08-02T00:29:07;2.70;;;2.17;;
17347;SDS011;8791;50.876;4.342;2022-08-02T00:31:34;3.58;;;2.13;;
17347;SDS011;8791;50.876;4.342;2022-08-02T00:34:01;6.72;;;1.92;;
17347;SDS011;8791;50.876;4.342;2022-08-02T00:36:28;5.25;;;2.40;;
17347;SDS011;8791;50.876;4.342;2022-08-02T00:38:54;5.72;;;2.30;;
17347;SDS011;8791;50.876;4.342;2022-08-02T00:41:21;6.57;;;2.17;;
17347;SDS011;8791;50.876;4.342;2022-08-02T00:43:50;7.43;;;2.33;;
17347;SDS011;8791;50.876;4.342;2022-08-02T00:46:18;4.15;;;2.20;;
17347;SDS011;8791;50.876;4.342;2022-08-02T00:48:45;3.92;;;2.05;;
17347;SDS011;8791;50.876;4.342;2022-08-02T00:51:13;4.43;;;2.70;;
17347;SDS011;8791;50.876;4.342;2022-08-02T00:53:40;5.53;;;2.10;;
17347;SDS011;8791;50.876;4.342;2022-08-02T00:56:07;6.03;;;2.33;;
17347;SDS011;8791;50.876;4.342;2022-08-02T00:58:34;7.60;;;2.22;;
17347;SDS011;8791;50.876;4.342;2022-08-02T01:01:03;4.72;;;2.10;;
17347;SDS011;8791;50.876;4.342;2022-08-02T01:03:29;6.07;;;2.22;;
17347;SDS011;8791;50.876;4.342;2022-08-02T01:05:56;4.40;;;2.33;;
17347;SDS011;8791;50.876;4.342;2022-08-02T01:08:23;5.15;;;2.05;;
17347;SDS011;8791;50.876;4.342;2022-08-02T01:10:50;6.20;;;1.83;;
17347;SDS011;8791;50.876;4.342;2022-08-02T01:13:17;3.53;;;2.08;;
17347;SDS011;8791;50.876;4.342;2022-08-02T01:15:50;3.45;;;2.17;;
17347;SDS011;8791;50.876;4.342;2022-08-02T01:18:25;7.13;;;2.28;;
17347;SDS011;8791;50.876;4.342;2022-08-02T01:24:16;8.65;;;2.22;;
17347;SDS011;8791;50.876;4.342;2022-08-02T01:26:49;4.07;;;2.28;;
17347;SDS011;8791;50.876;4.342;2022-08-02T01:29:24;2.92;;;2.10;;
17347;SDS011;8791;50.876;4.342;2022-08-02T01:31:56;3.95;;;2.13;;
17347;SDS011;8791;50.876;4.342;2022-08-02T01:34:29;4.20;;;1.98;;
17347;SDS011;8791;50.876;4.342;2022-08-02T01:37:01;3.63;;;2.13;;
17347;SDS011;8791;50.876;4.342;2022-08-02T01:39:31;9.02;;;2.35;;
17347;SDS011;8791;50.876;4.342;2022-08-02T01:42:01;3.40;;;2.10;;
17347;SDS011;8791;50.876;4.342;2022-08-02T01:44:32;2.75;;;2.13;;
17347;SDS011;8791;50.876;4.342;2022-08-02T01:47:02;3.38;;;2.08;;
17347;SDS011;8791;50.876;4.342;2022-08-02T01:49:31;5.95;;;2.45;;
17347;SDS011;8791;50.876;4.342;2022-08-02T01:52:00;4.38;;;2.33;;
17347;SDS011;8791;50.876;4.342;2022-08-02T01:54:46;3.05;;;2.25;;
17347;SDS011;8791;50.876;4.342;2022-08-02T01:57:16;8.93;;;2.55;;
17347;SDS011;8791;50.876;4.342;2022-08-02T01:59:47;5.97;;;2.40;;
17347;SDS011;8791;50.876;4.342;2022-08-02T02:02:16;4.55;;;2.30;;
17347;SDS011;8791;50.876;4.342;2022-08-02T02:04:44;3.63;;;2.28;;
17347;SDS011;8791;50.876;4.342;2022-08-02T02:07:14;4.50;;;2.50;;
17347;SDS011;8791;50.876;4.342;2022-08-02T02:09:43;3.78;;;2.38;;
17347;SDS011;8791;50.876;4.342;2022-08-02T02:12:11;3.67;;;2.30;;
17347;SDS011;8791;50.876;4.342;2022-08-02T02:14:40;3.03;;;2.38;;
17347;SDS011;8791;50.876;4.342;2022-08-02T02:17:10;3.15;;;2.55;;
17347;SDS011;8791;50.876;4.342;2022-08-02T02:19:38;4.95;;;2.20;;
17347;SDS011;8791;50.876;4.342;2022-08-02T02:22:07;4.18;;;2.50;;
17347;SDS011;8791;50.876;4.342;2022-08-02T02:24:34;6.68;;;2.30;;
17347;SDS011;8791;50.876;4.342;2022-08-02T02:27:01;3.65;;;2.67;;
17347;SDS011;8791;50.876;4.342;2022-08-02T02:29:30;2.80;;;2.53;;
17347;SDS011;8791;50.876;4.342;2022-08-02T02:31:59;7.45;;;2.83;;
17347;SDS011;8791;50.876;4.342;2022-08-02T02:34:28;3.08;;;2.50;;
17347;SDS011;8791;50.876;4.342;2022-08-02T02:36:59;3.80;;;2.35;;
17347;SDS011;8791;50.876;4.342;2022-08-02T02:39:28;4.75;;;2.38;;
17347;SDS011;8791;50.876;4.342;2022-08-02T02:41:57;6.40;;;2.30;;
17347;SDS011;8791;50.876;4.342;2022-08-02T02:44:28;5.65;;;2.50;;
17347;SDS011;8791;50.876;4.342;2022-08-02T02:46:56;3.85;;;2.30;;
17347;SDS011;8791;50.876;4.342;2022-08-02T02:49:24;7.57;;;2.38;;
17347;SDS011;8791;50.876;4.342;2022-08-02T02:51:54;2.90;;;2.63;;
17347;SDS011;8791;50.876;4.342;2022-08-02T02:54:22;4.82;;;2.22;;
17347;SDS011;8791;50.876;4.342;2022-08-02T02:56:50;7.90;;;2.45;;
17347;SDS011;8791;50.876;4.342;2022-08-02T02:59:19;2.45;;;2.25;;
17347;SDS011;8791;50.876;4.342;2022-08-02T03:01:46;3.63;;;2.35;;
17347;SDS011;8791;50.876;4.342;2022-08-02T03:04:13;3.53;;;2.88;;
17347;SDS011;8791;50.876;4.342;2022-08-02T03:06:40;5.20;;;2.38;;
17347;SDS011;8791;50.876;4.342;2022-08-02T03:09:09;10.15;;;3.05;;
17347;SDS011;8791;50.876;4.342;2022-08-02T03:11:37;4.00;;;2.00;;
17347;SDS011;8791;50.876;4.342;2022-08-02T03:14:07;4.15;;;2.35;;
17347;SDS011;8791;50.876;4.342;2022-08-02T03:16:40;8.88;;;3.20;;
17347;SDS011;8791;50.876;4.342;2022-08-02T03:19:08;3.33;;;2.30;;
17347;SDS011;8791;50.876;4.342;2022-08-02T03:21:35;3.50;;;2.47;;
17347;SDS011;8791;50.876;4.342;2022-08-02T03:24:03;12.55;;;3.28;;
17347;SDS011;8791;50.876;4.342;2022-08-02T03:26:32;3.25;;;2.30;;
17347;SDS011;8791;50.876;4.342;2022-08-02T03:28:59;5.30;;;2.75;;
17347;SDS011;8791;50.876;4.342;2022-08-02T03:31:26;3.65;;;2.20;;
17347;SDS011;8791;50.876;4.342;2022-08-02T03:33:53;8.77;;;2.50;;
17347;SDS011;8791;50.876;4.342;2022-08-02T03:36:21;4.25;;;2.97;;
17347;SDS011;8791;50.876;4.342;2022-08-02T03:38:50;4.63;;;2.92;;
17347;SDS011;8791;50.876;4.342;2022-08-02T03:41:19;5.18;;;3.35;;
17347;SDS011;8791;50.876;4.342;2022-08-02T03:43:49;4.80;;;2.90;;
17347;SDS011;8791;50.876;4.342;2022-08-02T03:46:19;3.67;;;3.00;;
17347;SDS011;8791;50.876;4.342;2022-08-02T03:48:48;3.30;;;3.00;;
17347;SDS011;8791;50.876;4.342;2022-08-02T03:51:15;5.55;;;3.53;;
17347;SDS011;8791;50.876;4.342;2022-08-02T03:53:43;3.75;;;3.45;;
17347;SDS011;8791;50.876;4.342;2022-08-02T03:56:10;3.55;;;2.88;;
17347;SDS011;8791;50.876;4.342;2022-08-02T03:58:37;3.63;;;3.30;;
17347;SDS011;8791;50.876;4.342;2022-08-02T04:01:06;4.45;;;3.10;;
17347;SDS011;8791;50.876;4.342;2022-08-02T04:03:33;3.88;;;3.42;;
17347;SDS011;8791;50.876;4.342;2022-08-02T04:05:59;4.13;;;3.72;;
17347;SDS011;8791;50.876;4.342;2022-08-02T04:08:26;4.47;;;3.92;;
17347;SDS011;8791;50.876;4.342;2022-08-02T04:10:53;4.72;;;4.00;;
17347;SDS011;8791;50.876;4.342;2022-08-02T04:13:38;5.90;;;4.25;;
17347;SDS011;8791;50.876;4.342;2022-08-02T04:16:08;8.70;;;4.57;;
17347;SDS011;8791;50.876;4.342;2022-08-02T04:18:39;5.90;;;4.88;;
17347;SDS011;8791;50.876;4.342;2022-08-02T04:21:09;6.07;;;4.80;;
17347;SDS011;8791;50.876;4.342;2022-08-02T04:23:40;10.35;;;4.78;;
17347;SDS011;8791;50.876;4.342;2022-08-02T04:26:09;9.18;;;4.28;;
17347;SDS011;8791;50.876;4.342;2022-08-02T04:28:36;4.93;;;4.13;;
17347;SDS011;8791;50.876;4.342;2022-08-02T04:31:04;5.00;;;4.50;;
17347;SDS011;8791;50.876;4.342;2022-08-02T04:33:33;5.78;;;4.22;;
17347;SDS011;8791;50.876;4.342;2022-08-02T04:36:01;4.75;;;4.20;;
17347;SDS011;8791;50.876;4.342;2022-08-02T04:38:30;6.70;;;4.65;;
17347;SDS011;8791;50.876;4.342;2022-08-02T04:40:56;5.97;;;4.13;;
17347;SDS011;8791;50.876;4.342;2022-08-02T04:43:23;8.30;;;4.00;;
17347;SDS011;8791;50.876;4.342;2022-08-02T04:45:51;5.97;;;4.53;;
17347;SDS011;8791;50.876;4.342;2022-08-02T04:48:19;4.90;;;4.03;;
17347;SDS011;8791;50.876;4.342;2022-08-02T04:50:48;4.82;;;4.30;;
17347;SDS011;8791;50.876;4.342;2022-08-02T04:53:16;8.25;;;4.40;;
17347;SDS011;8791;50.876;4.342;2022-08-02T04:55:43;5.95;;;4.32;;
17347;SDS011;8791;50.876;4.342;2022-08-02T04:58:10;6.75;;;4.75;;
17347;SDS011;8791;50.876;4.342;2022-08-02T05:00:37;6.78;;;4.30;;
17347;SDS011;8791;50.876;4.342;2022-08-02T05:03:05;5.75;;;4.60;;
17347;SDS011;8791;50.876;4.342;2022-08-02T05:05:32;9.98;;;5.40;;
17347;SDS011;8791;50.876;4.342;2022-08-02T05:08:00;9.18;;;5.18;;
17347;SDS011;8791;50.876;4.342;2022-08-02T05:10:27;10.75;;;4.85;;
17347;SDS011;8791;50.876;4.342;2022-08-02T05:12:54;7.85;;;4.93;;
17347;SDS011;8791;50.876;4.342;2022-08-02T05:15:21;9.77;;;4.93;;
17347;SDS011;8791;50.876;4.342;2022-08-02T05:17:48;10.88;;;5.28;;
17347;SDS011;8791;50.876;4.342;2022-08-02T05:20:15;9.00;;;5.25;;
17347;SDS011;8791;50.876;4.342;2022-08-02T05:22:43;8.95;;;5.22;;
17347;SDS011;8791;50.876;4.342;2022-08-02T05:25:11;9.27;;;5.32;;
17347;SDS011;8791;50.876;4.342;2022-08-02T05:27:38;6.80;;;6.05;;
17347;SDS011;8791;50.876;4.342;2022-08-02T05:30:06;7.60;;;6.70;;
17347;SDS011;8791;50.876;4.342;2022-08-02T05:32:33;8.98;;;6.00;;
17347;SDS011;8791;50.876;4.342;2022-08-02T05:35:01;8.85;;;6.47;;
17347;SDS011;8791;50.876;4.342;2022-08-02T05:37:28;14.27;;;6.20;;
17347;SDS011;8791;50.876;4.342;2022-08-02T05:39:55;9.00;;;6.07;;
17347;SDS011;8791;50.876;4.342;2022-08-02T05:42:24;8.70;;;6.40;;
17347;SDS011;8791;50.876;4.342;2022-08-02T05:44:50;10.02;;;6.28;;
17347;SDS011;8791;50.876;4.342;2022-08-02T05:47:17;10.98;;;6.43;;
17347;SDS011;8791;50.876;4.342;2022-08-02T05:49:44;10.18;;;6.80;;
17347;SDS011;8791;50.876;4.342;2022-08-02T05:52:13;8.20;;;6.78;;
17347;SDS011;8791;50.876;4.342;2022-08-02T05:54:46;9.48;;;6.95;;
17347;SDS011;8791;50.876;4.342;2022-08-02T05:57:23;14.80;;;7.15;;
17347;SDS011;8791;50.876;4.342;2022-08-02T06:00:04;10.15;;;6.70;;
17347;SDS011;8791;50.876;4.342;2022-08-02T06:02:37;10.57;;;7.28;;
17347;SDS011;8791;50.876;4.342;2022-08-02T06:05:16;12.57;;;6.95;;
17347;SDS011;8791;50.876;4.342;2022-08-02T06:07:54;12.10;;;6.57;;
17347;SDS011;8791;50.876;4.342;2022-08-02T06:10:33;9.13;;;6.18;;
17347;SDS011;8791;50.876;4.342;2022-08-02T06:13:06;11.30;;;6.30;;
17347;SDS011;8791;50.876;4.342;2022-08-02T06:15:35;9.75;;;6.60;;
17347;SDS011;8791;50.876;4.342;2022-08-02T06:18:08;10.73;;;5.85;;
17347;SDS011;8791;50.876;4.342;2022-08-02T06:20:37;9.13;;;5.85;;
17347;SDS011;8791;50.876;4.342;2022-08-02T06:23:05;7.47;;;5.82;;
17347;SDS011;8791;50.876;4.342;2022-08-02T06:25:36;8.40;;;5.15;;
17347;SDS011;8791;50.876;4.342;2022-08-02T06:28:08;7.20;;;4.82;;
17347;SDS011;8791;50.876;4.342;2022-08-02T06:30:44;10.23;;;5.40;;
17347;SDS011;8791;50.876;4.342;2022-08-02T06:33:12;7.07;;;4.85;;
17347;SDS011;8791;50.876;4.342;2022-08-02T06:35:42;6.57;;;4.95;;
17347;SDS011;8791;50.876;4.342;2022-08-02T06:38:14;5.97;;;4.13;;
17347;SDS011;8791;50.876;4.342;2022-08-02T06:40:47;5.30;;;4.20;;
17347;SDS011;8791;50.876;4.342;2022-08-02T06:43:20;4.68;;;3.80;;
17347;SDS011;8791;50.876;4.342;2022-08-02T06:45:56;6.63;;;4.57;;
17347;SDS011;8791;50.876;4.342;2022-08-02T06:48:26;5.95;;;3.58;;
17347;SDS011;8791;50.876;4.342;2022-08-02T06:50:56;5.80;;;3.90;;
17347;SDS011;8791;50.876;4.342;2022-08-02T06:53:23;7.70;;;3.60;;
17347;SDS011;8791;50.876;4.342;2022-08-02T06:55:53;9.00;;;3.28;;
17347;SDS011;8791;50.876;4.342;2022-08-02T06:58:21;6.43;;;4.03;;
17347;SDS011;8791;50.876;4.342;2022-08-02T07:00:48;9.68;;;3.28;;
17347;SDS011;8791;50.876;4.342;2022-08-02T07:03:16;3.75;;;3.00;;
17347;SDS011;8791;50.876;4.342;2022-08-02T07:05:43;6.65;;;3.30;;
17347;SDS011;8791;50.876;4.342;2022-08-02T07:08:13;5.07;;;3.00;;
17347;SDS011;8791;50.876;4.342;2022-08-02T07:10:40;11.00;;;2.95;;
17347;SDS011;8791;50.876;4.342;2022-08-02T07:13:07;4.57;;;3.05;;
17347;SDS011;8791;50.876;4.342;2022-08-02T07:15:38;2.80;;;2.40;;
17347;SDS011;8791;50.876;4.342;2022-08-02T07:18:05;6.50;;;2.60;;
17347;SDS011;8791;50.876;4.342;2022-08-02T07:20:43;5.88;;;2.65;;
17347;SDS011;8791;50.876;4.342;2022-08-02T07:23:10;3.58;;;2.75;;
17347;SDS011;8791;50.876;4.342;2022-08-02T07:25:38;2.85;;;2.50;;
17347;SDS011;8791;50.876;4.342;2022-08-02T07:28:08;3.30;;;2.80;;
17347;SDS011;8791;50.876;4.342;2022-08-02T07:30:35;3.90;;;2.28;;
17347;SDS011;8791;50.876;4.342;2022-08-02T07:33:04;5.85;;;2.53;;
17347;SDS011;8791;50.876;4.342;2022-08-02T07:35:31;2.40;;;2.20;;
17347;SDS011;8791;50.876;4.342;2022-08-02T07:37:58;3.33;;;2.38;;
17347;SDS011;8791;50.876;4.342;2022-08-02T07:40:25;2.50;;;2.15;;
17347;SDS011;8791;50.876;4.342;2022-08-02T07:43:01;6.60;;;1.90;;
17347;SDS011;8791;50.876;4.342;2022-08-02T07:45:29;3.85;;;2.20;;
17347;SDS011;8791;50.876;4.342;2022-08-02T07:47:57;1.60;;;1.50;;
17347;SDS011;8791;50.876;4.342;2022-08-02T07:50:25;4.78;;;2.00;;
17347;SDS011;8791;50.876;4.342;2022-08-02T07:52:53;7.00;;;1.90;;
17347;SDS011;8791;50.876;4.342;2022-08-02T07:55:20;2.42;;;1.63;;
17347;SDS011;8791;50.876;4.342;2022-08-02T07:57:46;5.68;;;2.35;;
17347;SDS011;8791;50.876;4.342;2022-08-02T08:00:14;3.95;;;2.28;;
17347;SDS011;8791;50.876;4.342;2022-08-02T08:02:42;5.32;;;2.10;;
17347;SDS011;8791;50.876;4.342;2022-08-02T08:05:13;4.03;;;1.95;;
17347;SDS011;8791;50.876;4.342;2022-08-02T08:07:41;4.22;;;2.25;;
17347;SDS011;8791;50.876;4.342;2022-08-02T08:10:09;3.72;;;1.85;;
17347;SDS011;8791;50.876;4.342;2022-08-02T08:12:36;3.88;;;1.90;;
17347;SDS011;8791;50.876;4.342;2022-08-02T08:15:03;1.80;;;1.63;;
17347;SDS011;8791;50.876;4.342;2022-08-02T08:17:31;3.70;;;1.60;;
17347;SDS011;8791;50.876;4.342;2022-08-02T08:20:01;3.90;;;1.40;;
17347;SDS011;8791;50.876;4.342;2022-08-02T08:22:30;2.28;;;1.67;;
17347;SDS011;8791;50.876;4.342;2022-08-02T08:24:58;3.03;;;1.50;;
17347;SDS011;8791;50.876;4.342;2022-08-02T08:27:25;3.78;;;1.42;;
17347;SDS011;8791;50.876;4.342;2022-08-02T08:29:52;4.03;;;1.77;;
17347;SDS011;8791;50.876;4.342;2022-08-02T08:32:18;4.72;;;1.75;;
17347;SDS011;8791;50.876;4.342;2022-08-02T08:34:45;3.85;;;1.70;;
17347;SDS011;8791;50.876;4.342;2022-08-02T08:37:12;2.72;;;1.73;;
17347;SDS011;8791;50.876;4.342;2022-08-02T08:39:40;3.65;;;1.90;;
17347;SDS011;8791;50.876;4.342;2022-08-02T08:42:08;5.68;;;1.80;;
17347;SDS011;8791;50.876;4.342;2022-08-02T08:44:36;4.80;;;1.40;;
17347;SDS011;8791;50.876;4.342;2022-08-02T08:47:03;2.45;;;1.75;;
17347;SDS011;8791;50.876;4.342;2022-08-02T08:49:31;4.97;;;1.48;;
17347;SDS011;8791;50.876;4.342;2022-08-02T08:52:03;3.42;;;1.67;;
17347;SDS011;8791;50.876;4.342;2022-08-02T08:54:32;1.52;;;1.30;;
17347;SDS011;8791;50.876;4.342;2022-08-02T08:57:03;4.63;;;1.40;;
17347;SDS011;8791;50.876;4.342;2022-08-02T08:59:32;3.85;;;1.40;;
17347;SDS011;8791;50.876;4.342;2022-08-02T09:01:59;2.75;;;1.48;;
17347;SDS011;8791;50.876;4.342;2022-08-02T09:04:27;3.38;;;1.63;;
17347;SDS011;8791;50.876;4.342;2022-08-02T09:06:54;2.35;;;1.40;;
17347;SDS011;8791;50.876;4.342;2022-08-02T09:09:21;1.50;;;1.40;;
17347;SDS011;8791;50.876;4.342;2022-08-02T09:11:48;3.00;;;1.70;;
17347;SDS011;8791;50.876;4.342;2022-08-02T09:14:24;8.05;;;1.10;;
17347;SDS011;8791;50.876;4.342;2022-08-02T09:16:54;3.83;;;1.30;;
17347;SDS011;8791;50.876;4.342;2022-08-02T09:19:31;8.57;;;1.77;;
17347;SDS011;8791;50.876;4.342;2022-08-02T09:22:00;6.63;;;1.45;;
17347;SDS011;8791;50.876;4.342;2022-08-02T09:24:29;4.13;;;1.50;;
17347;SDS011;8791;50.876;4.342;2022-08-02T09:27:08;2.67;;;1.25;;
17347;SDS011;8791;50.876;4.342;2022-08-02T09:29:36;2.30;;;1.40;;
17347;SDS011;8791;50.876;4.342;2022-08-02T09:32:05;1.50;;;1.33;;
17347;SDS011;8791;50.876;4.342;2022-08-02T09:34:42;2.95;;;1.30;;
17347;SDS011;8791;50.876;4.342;2022-08-02T09:37:20;1.85;;;1.42;;
17347;SDS011;8791;50.876;4.342;2022-08-02T09:39:48;2.42;;;1.40;;
17347;SDS011;8791;50.876;4.342;2022-08-02T09:42:15;2.72;;;1.40;;
17347;SDS011;8791;50.876;4.342;2022-08-02T09:44:51;4.68;;;1.60;;
17347;SDS011;8791;50.876;4.342;2022-08-02T09:47:24;9.52;;;1.73;;
17347;SDS011;8791;50.876;4.342;2022-08-02T09:49:52;4.15;;;2.13;;
17347;SDS011;8791;50.876;4.342;2022-08-02T09:52:26;3.78;;;1.73;;
17347;SDS011;8791;50.876;4.342;2022-08-02T09:54:54;2.63;;;1.60;;
17347;SDS011;8791;50.876;4.342;2022-08-02T09:57:28;5.22;;;1.85;;
17347;SDS011;8791;50.876;4.342;2022-08-02T09:59:57;3.28;;;1.83;;
17347;SDS011;8791;50.876;4.342;2022-08-02T10:02:26;4.32;;;2.30;;
17347;SDS011;8791;50.876;4.342;2022-08-02T10:04:53;7.25;;;1.50;;
17347;SDS011;8791;50.876;4.342;2022-08-02T10:07:20;3.08;;;1.30;;
17347;SDS011;8791;50.876;4.342;2022-08-02T10:09:49;3.53;;;1.73;;
17347;SDS011;8791;50.876;4.342;2022-08-02T10:12:16;2.40;;;1.75;;
17347;SDS011;8791;50.876;4.342;2022-08-02T10:14:44;2.83;;;1.52;;
17347;SDS011;8791;50.876;4.342;2022-08-02T10:17:11;1.75;;;1.35;;
17347;SDS011;8791;50.876;4.342;2022-08-02T10:19:41;2.38;;;1.60;;
17347;SDS011;8791;50.876;4.342;2022-08-02T10:22:10;9.20;;;1.95;;
17347;SDS011;8791;50.876;4.342;2022-08-02T10:24:39;10.52;;;1.80;;
17347;SDS011;8791;50.876;4.342;2022-08-02T10:27:10;5.50;;;1.80;;
17347;SDS011;8791;50.876;4.342;2022-08-02T10:29:40;6.95;;;1.63;;
17347;SDS011;8791;50.876;4.342;2022-08-02T10:32:11;2.22;;;1.70;;
17347;SDS011;8791;50.876;4.342;2022-08-02T10:34:44;5.85;;;1.35;;
17347;SDS011;8791;50.876;4.342;2022-08-02T10:37:14;3.80;;;1.20;;
17347;SDS011;8791;50.876;4.342;2022-08-02T10:39:42;2.22;;;1.20;;
17347;SDS011;8791;50.876;4.342;2022-08-02T10:42:10;3.38;;;1.20;;
17347;SDS011;8791;50.876;4.342;2022-08-02T10:44:38;2.10;;;1.50;;
17347;SDS011;8791;50.876;4.342;2022-08-02T10:47:18;12.68;;;1.20;;
17347;SDS011;8791;50.876;4.342;2022-08-02T10:49:50;7.55;;;1.40;;
17347;SDS011;8791;50.876;4.342;2022-08-02T10:52:18;1.35;;;1.25;;
17347;SDS011;8791;50.876;4.342;2022-08-02T10:54:50;2.90;;;1.50;;
17347;SDS011;8791;50.876;4.342;2022-08-02T10:57:21;4.57;;;1.30;;
17347;SDS011;8791;50.876;4.342;2022-08-02T10:59:54;2.88;;;1.30;;
17347;SDS011;8791;50.876;4.342;2022-08-02T11:02:34;2.80;;;1.33;;
17347;SDS011;8791;50.876;4.342;2022-08-02T11:05:06;1.55;;;1.23;;
17347;SDS011;8791;50.876;4.342;2022-08-02T11:07:44;4.03;;;1.15;;
17347;SDS011;8791;50.876;4.342;2022-08-02T11:10:29;4.05;;;1.42;;
17347;SDS011;8791;50.876;4.342;2022-08-02T11:13:07;2.53;;;1.02;;
17347;SDS011;8791;50.876;4.342;2022-08-02T11:15:46;2.10;;;1.25;;
17347;SDS011;8791;50.876;4.342;2022-08-02T11:21:31;1.85;;;1.30;;
17347;SDS011;8791;50.876;4.342;2022-08-02T11:26:52;1.52;;;1.08;;
17347;SDS011;8791;50.876;4.342;2022-08-02T11:29:19;1.65;;;1.10;;
17347;SDS011;8791;50.876;4.342;2022-08-02T11:31:47;2.38;;;1.00;;
17347;SDS011;8791;50.876;4.342;2022-08-02T11:34:15;5.93;;;0.77;;
17347;SDS011;8791;50.876;4.342;2022-08-02T11:36:47;4.70;;;1.00;;
17347;SDS011;8791;50.876;4.342;2022-08-02T11:39:17;3.67;;;1.20;;
17347;SDS011;8791;50.876;4.342;2022-08-02T11:41:48;1.80;;;1.00;;
17347;SDS011;8791;50.876;4.342;2022-08-02T11:44:16;1.10;;;0.95;;
17347;SDS011;8791;50.876;4.342;2022-08-02T11:46:52;1.67;;;1.17;;
17347;SDS011;8791;50.876;4.342;2022-08-02T11:49:19;3.17;;;1.17;;
17347;SDS011;8791;50.876;4.342;2022-08-02T11:51:52;2.55;;;1.40;;
17347;SDS011;8791;50.876;4.342;2022-08-02T11:54:21;2.55;;;1.25;;
17347;SDS011;8791;50.876;4.342;2022-08-02T11:56:49;1.25;;;1.00;;
17347;SDS011;8791;50.876;4.342;2022-08-02T11:59:16;5.25;;;1.27;;
17347;SDS011;8791;50.876;4.342;2022-08-02T12:01:46;5.18;;;1.42;;
17347;SDS011;8791;50.876;4.342;2022-08-02T12:04:17;5.78;;;1.00;;
17347;SDS011;8791;50.876;4.342;2022-08-02T12:06:56;2.80;;;1.50;;
17347;SDS011;8791;50.876;4.342;2022-08-02T12:09:24;1.63;;;0.90;;
17347;SDS011;8791;50.876;4.342;2022-08-02T12:11:52;2.70;;;0.90;;
17347;SDS011;8791;50.876;4.342;2022-08-02T12:14:20;2.40;;;1.00;;
17347;SDS011;8791;50.876;4.342;2022-08-02T12:16:47;2.47;;;2.03;;
17347;SDS011;8791;50.876;4.342;2022-08-02T12:19:33;5.20;;;1.00;;
17347;SDS011;8791;50.876;4.342;2022-08-02T12:22:08;2.58;;;0.90;;
17347;SDS011;8791;50.876;4.342;2022-08-02T12:24:38;4.00;;;1.45;;
17347;SDS011;8791;50.876;4.342;2022-08-02T12:27:06;1.35;;;0.98;;
17347;SDS011;8791;50.876;4.342;2022-08-02T12:29:37;1.17;;;0.88;;
17347;SDS011;8791;50.876;4.342;2022-08-02T12:32:07;1.05;;;0.80;;
17347;SDS011;8791;50.876;4.342;2022-08-02T12:34:34;3.85;;;1.10;;
17347;SDS011;8791;50.876;4.342;2022-08-02T12:37:04;1.10;;;1.00;;
17347;SDS011;8791;50.876;4.342;2022-08-02T12:39:36;1.13;;;0.98;;
17347;SDS011;8791;50.876;4.342;2022-08-02T12:42:05;1.15;;;1.00;;
17347;SDS011;8791;50.876;4.342;2022-08-02T12:44:33;1.50;;;1.13;;
17347;SDS011;8791;50.876;4.342;2022-08-02T12:47:02;2.33;;;1.35;;
17347;SDS011;8791;50.876;4.342;2022-08-02T12:49:31;1.10;;;0.80;;
17347;SDS011;8791;50.876;4.342;2022-08-02T12:51:58;5.50;;;1.40;;
17347;SDS011;8791;50.876;4.342;2022-08-02T12:54:26;1.75;;;0.80;;
17347;SDS011;8791;50.876;4.342;2022-08-02T12:56:58;5.22;;;1.10;;
17347;SDS011;8791;50.876;4.342;2022-08-02T12:59:36;1.67;;;1.20;;
17347;SDS011;8791;50.876;4.342;2022-08-02T13:02:05;4.70;;;1.10;;
17347;SDS011;8791;50.876;4.342;2022-08-02T13:04:34;0.93;;;0.90;;
17347;SDS011;8791;50.876;4.342;2022-08-02T13:07:02;3.35;;;1.00;;
17347;SDS011;8791;50.876;4.342;2022-08-02T13:09:34;2.05;;;1.13;;
17347;SDS011;8791;50.876;4.342;2022-08-02T13:12:03;4.55;;;1.20;;
17347;SDS011;8791;50.876;4.342;2022-08-02T13:14:30;1.60;;;1.00;;
17347;SDS011;8791;50.876;4.342;2022-08-02T13:16:58;4.53;;;1.20;;
17347;SDS011;8791;50.876;4.342;2022-08-02T13:19:25;2.30;;;1.00;;
17347;SDS011;8791;50.876;4.342;2022-08-02T13:21:52;1.63;;;1.40;;
17347;SDS011;8791;50.876;4.342;2022-08-02T13:24:19;3.53;;;0.98;;
17347;SDS011;8791;50.876;4.342;2022-08-02T13:26:46;2.78;;;1.05;;
17347;SDS011;8791;50.876;4.342;2022-08-02T13:29:15;2.00;;;1.08;;
17347;SDS011;8791;50.876;4.342;2022-08-02T13:31:42;1.13;;;1.00;;
17347;SDS011;8791;50.876;4.342;2022-08-02T13:34:09;5.35;;;1.10;;
17347;SDS011;8791;50.876;4.342;2022-08-02T13:36:35;1.10;;;1.00;;
17347;SDS011;8791;50.876;4.342;2022-08-02T13:39:03;1.25;;;0.90;;
17347;SDS011;8791;50.876;4.342;2022-08-02T13:41:30;3.92;;;0.90;;
17347;SDS011;8791;50.876;4.342;2022-08-02T13:43:57;2.95;;;0.93;;
17347;SDS011;8791;50.876;4.342;2022-08-02T13:46:25;1.95;;;1.05;;
17347;SDS011;8791;50.876;4.342;2022-08-02T13:48:52;3.10;;;0.90;;
17347;SDS011;8791;50.876;4.342;2022-08-02T13:51:19;2.17;;;0.90;;
17347;SDS011;8791;50.876;4.342;2022-08-02T13:53:46;4.20;;;0.90;;
17347;SDS011;8791;50.876;4.342;2022-08-02T13:56:13;2.38;;;1.00;;
17347;SDS011;8791;50.876;4.342;2022-08-02T13:58:40;2.95;;;1.20;;
17347;SDS011;8791;50.876;4.342;2022-08-02T14:01:07;2.78;;;0.80;;
17347;SDS011;8791;50.876;4.342;2022-08-02T14:03:35;5.88;;;1.42;;
17347;SDS011;8791;50.876;4.342;2022-08-02T14:06:02;1.80;;;0.90;;
17347;SDS011;8791;50.876;4.342;2022-08-02T14:08:30;2.85;;;0.93;;
17347;SDS011;8791;50.876;4.342;2022-08-02T14:10:59;1.67;;;0.95;;
17347;SDS011;8791;50.876;4.342;2022-08-02T14:13:26;5.80;;;1.45;;
17347;SDS011;8791;50.876;4.342;2022-08-02T14:15:53;1.20;;;1.00;;
17347;SDS011;8791;50.876;4.342;2022-08-02T14:18:20;2.42;;;1.00;;
17347;SDS011;8791;50.876;4.342;2022-08-02T14:20:48;3.28;;;1.15;;
17347;SDS011;8791;50.876;4.342;2022-08-02T14:23:15;8.20;;;1.63;;
17347;SDS011;8791;50.876;4.342;2022-08-02T14:25:42;5.53;;;1.10;;
17347;SDS011;8791;50.876;4.342;2022-08-02T14:28:09;6.07;;;1.10;;
17347;SDS011;8791;50.876;4.342;2022-08-02T14:30:36;2.05;;;1.05;;
17347;SDS011;8791;50.876;4.342;2022-08-02T14:33:03;3.05;;;0.85;;
17347;SDS011;8791;50.876;4.342;2022-08-02T14:35:29;3.08;;;1.23;;
17347;SDS011;8791;50.876;4.342;2022-08-02T14:37:58;5.40;;;1.00;;
17347;SDS011;8791;50.876;4.342;2022-08-02T14:40:25;5.93;;;1.27;;
17347;SDS011;8791;50.876;4.342;2022-08-02T14:42:52;5.43;;;0.82;;
17347;SDS011;8791;50.876;4.342;2022-08-02T14:45:19;3.58;;;1.30;;
17347;SDS011;8791;50.876;4.342;2022-08-02T14:47:48;2.05;;;1.05;;
17347;SDS011;8791;50.876;4.342;2022-08-02T14:50:15;4.82;;;0.85;;
17347;SDS011;8791;50.876;4.342;2022-08-02T14:52:42;2.30;;;1.02;;
17347;SDS011;8791;50.876;4.342;2022-08-02T14:55:10;3.33;;;1.02;;
17347;SDS011;8791;50.876;4.342;2022-08-02T14:57:38;5.63;;;0.93;;
17347;SDS011;8791;50.876;4.342;2022-08-02T15:00:05;2.75;;;1.20;;
17347;SDS011;8791;50.876;4.342;2022-08-02T15:02:33;2.55;;;0.90;;
17347;SDS011;8791;50.876;4.342;2022-08-02T15:05:00;3.22;;;1.00;;
17347;SDS011;8791;50.876;4.342;2022-08-02T15:07:28;8.73;;;1.25;;
17347;SDS011;8791;50.876;4.342;2022-08-02T15:09:55;6.50;;;1.13;;
17347;SDS011;8791;50.876;4.342;2022-08-02T15:12:23;10.80;;;1.15;;
17347;SDS011;8791;50.876;4.342;2022-08-02T15:14:50;8.32;;;1.20;;
17347;SDS011;8791;50.876;4.342;2022-08-02T15:17:17;5.95;;;1.23;;
17347;SDS011;8791;50.876;4.342;2022-08-02T15:19:44;3.88;;;0.80;;
17347;SDS011;8791;50.876;4.342;2022-08-02T15:22:11;7.75;;;1.35;;